sensor_id;sensor_type;location;lat;lon;timestamp;pressure;altitude;pressure_sealevel;temperature;humidity
18201;BME280;9226;47.858;9.594;2023-03-04T00:00:07;95605.94;;;3.34;69.20
18201;BME280;9226;47.858;9.594;2023-03-04T00:02:33;95597.28;;;3.32;69.54
18201;BME280;9226;47.858;9.594;2023-03-04T00:04:58;95595.06;;;3.24;69.42
18201;BME280;9226;47.858;9.594;2023-03-04T00:07:24;95597.19;;;3.16;69.88
18201;BME280;9226;47.858;9.594;2023-03-04T00:09:49;95593.09;;;3.11;70.01
18201;BME280;9226;47.858;9.594;2023-03-04T00:12:14;95594.97;;;3.08;69.38
18201;BME280;9226;47.858;9.594;2023-03-04T00:14:40;95603.13;;;3.02;69.66
18201;BME280;9226;47.858;9.594;2023-03-04T00:17:05;95598.78;;;3.01;69.24
18201;BME280;9226;47.858;9.594;2023-03-04T00:19:31;95599.09;;;2.95;69.70
18201;BME280;9226;47.858;9.594;2023-03-04T00:21:57;95599.09;;;2.95;69.39
18201;BME280;9226;47.858;9.594;2023-03-04T00:24:22;95593.09;;;2.93;69.14
18201;BME280;9226;47.858;9.594;2023-03-04T00:26:49;95591.66;;;2.86;69.82
18201;BME280;9226;47.858;9.594;2023-03-04T00:29:14;95594.59;;;2.80;70.06
18201;BME280;9226;47.858;9.594;2023-03-04T00:31:40;95598.22;;;2.77;69.57
18201;BME280;9226;47.858;9.594;2023-03-04T00:34:05;95599.22;;;2.75;69.53
18201;BME280;9226;47.858;9.594;2023-03-04T00:36:30;95603.75;;;2.71;69.54
18201;BME280;9226;47.858;9.594;2023-03-04T00:38:56;95599.56;;;2.67;69.47
18201;BME280;9226;47.858;9.594;2023-03-04T00:41:21;95601.50;;;2.63;69.58
18201;BME280;9226;47.858;9.594;2023-03-04T00:43:46;95600.72;;;2.61;69.22
18201;BME280;9226;47.858;9.594;2023-03-04T00:46:12;95610.41;;;2.59;69.37
18201;BME280;9226;47.858;9.594;2023-03-04T00:48:37;95613.16;;;2.56;69.17
18201;BME280;9226;47.858;9.594;2023-03-04T00:51:03;95606.31;;;2.53;68.87
18201;BME280;9226;47.858;9.594;2023-03-04T00:53:29;95603.00;;;2.50;69.07
18201;BME280;9226;47.858;9.594;2023-03-04T00:55:54;95606.53;;;2.49;69.27
18201;BME280;9226;47.858;9.594;2023-03-04T00:58:20;95599.59;;;2.48;69.50
18201;BME280;9226;47.858;9.594;2023-03-04T01:00:45;95608.38;;;2.47;69.49
18201;BME280;9226;47.858;9.594;2023-03-04T01:03:10;95603.28;;;2.44;69.90
18201;BME280;9226;47.858;9.594;2023-03-04T01:05:36;95609.50;;;2.41;70.00
18201;BME280;9226;47.858;9.594;2023-03-04T01:08:02;95601.03;;;2.36;70.14
18201;BME280;9226;47.858;9.594;2023-03-04T01:10:27;95599.44;;;2.32;70.66
18201;BME280;9226;47.858;9.594;2023-03-04T01:12:53;95600.59;;;2.26;70.76
18201;BME280;9226;47.858;9.594;2023-03-04T01:15:18;95599.03;;;2.22;70.66
18201;BME280;9226;47.858;9.594;2023-03-04T01:17:44;95590.41;;;2.20;70.34
18201;BME280;9226;47.858;9.594;2023-03-04T01:20:10;95586.09;;;2.19;69.95
18201;BME280;9226;47.858;9.594;2023-03-04T01:22:36;95589.59;;;2.18;69.85
18201;BME280;9226;47.858;9.594;2023-03-04T01:25:02;95585.53;;;2.12;70.25
18201;BME280;9226;47.858;9.594;2023-03-04T01:27:27;95579.41;;;2.12;69.75
18201;BME280;9226;47.858;9.594;2023-03-04T01:29:53;95578.66;;;2.10;70.29
18201;BME280;9226;47.858;9.594;2023-03-04T01:32:18;95577.88;;;2.08;70.43
18201;BME280;9226;47.858;9.594;2023-03-04T01:34:44;95576.16;;;2.07;70.44
18201;BME280;9226;47.858;9.594;2023-03-04T01:37:10;95576.16;;;2.07;70.05
18201;BME280;9226;47.858;9.594;2023-03-04T01:39:37;95579.72;;;2.06;70.05
18201;BME280;9226;47.858;9.594;2023-03-04T01:42:03;95582.47;;;2.03;70.60
18201;BME280;9226;47.858;9.594;2023-03-04T01:44:28;95574.84;;;1.98;71.02
18201;BME280;9226;47.858;9.594;2023-03-04T01:46:54;95574.09;;;1.94;71.63
18201;BME280;9226;47.858;9.594;2023-03-04T01:49:20;95566.13;;;1.97;70.77
18201;BME280;9226;47.858;9.594;2023-03-04T01:51:52;95571.41;;;1.96;70.67
18201;BME280;9226;47.858;9.594;2023-03-04T01:54:18;95567.13;;;1.95;70.44
18201;BME280;9226;47.858;9.594;2023-03-04T01:56:45;95567.19;;;1.93;70.28
18201;BME280;9226;47.858;9.594;2023-03-04T01:59:23;95561.16;;;1.91;70.30
18201;BME280;9226;47.858;9.594;2023-03-04T02:01:51;95560.38;;;1.89;70.53
18201;BME280;9226;47.858;9.594;2023-03-04T02:04:20;95556.22;;;1.85;70.43
18201;BME280;9226;47.858;9.594;2023-03-04T02:06:47;95550.34;;;1.80;70.43
18201;BME280;9226;47.858;9.594;2023-03-04T02:09:14;95551.47;;;1.74;71.21
18201;BME280;9226;47.858;9.594;2023-03-04T02:11:41;95549.75;;;1.73;70.80
18201;BME280;9226;47.858;9.594;2023-03-04T02:14:07;95555.13;;;1.70;70.77
18201;BME280;9226;47.858;9.594;2023-03-04T02:16:33;95556.28;;;1.65;71.19
18201;BME280;9226;47.858;9.594;2023-03-04T02:18:59;95554.56;;;1.63;70.70
18201;BME280;9226;47.858;9.594;2023-03-04T02:21:27;95546.91;;;1.59;70.95
18201;BME280;9226;47.858;9.594;2023-03-04T02:26:40;95548.75;;;1.57;70.82
18201;BME280;9226;47.858;9.594;2023-03-04T02:29:08;95550.63;;;1.53;71.37
18201;BME280;9226;47.858;9.594;2023-03-04T02:31:40;95547.25;;;1.51;71.17
18201;BME280;9226;47.858;9.594;2023-03-04T02:34:12;95541.19;;;1.51;70.80
18201;BME280;9226;47.858;9.594;2023-03-04T02:36:39;95540.38;;;1.49;70.92
18201;BME280;9226;47.858;9.594;2023-03-04T02:39:11;95543.09;;;1.47;70.80
18201;BME280;9226;47.858;9.594;2023-03-04T02:41:37;95549.22;;;1.46;70.89
18201;BME280;9226;47.858;9.594;2023-03-04T02:44:03;95545.03;;;1.42;70.82
18201;BME280;9226;47.858;9.594;2023-03-04T02:46:28;95539.94;;;1.39;70.58
18201;BME280;9226;47.858;9.594;2023-03-04T02:48:54;95535.72;;;1.36;70.86
18201;BME280;9226;47.858;9.594;2023-03-04T02:51:19;95542.88;;;1.31;71.15
18201;BME280;9226;47.858;9.594;2023-03-04T02:53:45;95536.94;;;1.27;71.47
18201;BME280;9226;47.858;9.594;2023-03-04T02:56:10;95539.94;;;1.18;72.85
18201;BME280;9226;47.858;9.594;2023-03-04T02:58:36;95541.91;;;1.13;73.51
18201;BME280;9226;47.858;9.594;2023-03-04T03:01:04;95540.34;;;1.09;74.12
18201;BME280;9226;47.858;9.594;2023-03-04T03:03:29;95535.03;;;1.11;74.37
18201;BME280;9226;47.858;9.594;2023-03-04T03:05:55;95548.91;;;1.13;74.34
18201;BME280;9226;47.858;9.594;2023-03-04T03:08:20;95534.06;;;1.13;74.11
18201;BME280;9226;47.858;9.594;2023-03-04T03:10:45;95535.78;;;1.14;73.86
18201;BME280;9226;47.858;9.594;2023-03-04T03:13:11;95544.41;;;1.16;74.00
18201;BME280;9226;47.858;9.594;2023-03-04T03:15:36;95538.19;;;1.19;73.26
18201;BME280;9226;47.858;9.594;2023-03-04T03:18:07;95542.56;;;1.18;74.13
18201;BME280;9226;47.858;9.594;2023-03-04T03:20:32;95535.59;;;1.19;73.84
18201;BME280;9226;47.858;9.594;2023-03-04T03:22:58;95543.38;;;1.20;73.35
18201;BME280;9226;47.858;9.594;2023-03-04T03:25:23;95539.69;;;1.24;73.02
18201;BME280;9226;47.858;9.594;2023-03-04T03:27:48;95538.00;;;1.23;73.05
18201;BME280;9226;47.858;9.594;2023-03-04T03:30:15;95540.47;;;1.26;72.34
18201;BME280;9226;47.858;9.594;2023-03-04T03:32:40;95541.34;;;1.27;72.14
18201;BME280;9226;47.858;9.594;2023-03-04T03:35:06;95538.72;;;1.27;71.98
18201;BME280;9226;47.858;9.594;2023-03-04T03:37:31;95542.31;;;1.24;71.74
18201;BME280;9226;47.858;9.594;2023-03-04T03:39:57;95543.31;;;1.22;72.02
18201;BME280;9226;47.858;9.594;2023-03-04T03:42:22;95545.97;;;1.20;71.99
18201;BME280;9226;47.858;9.594;2023-03-04T03:44:48;95538.34;;;1.16;71.59
18201;BME280;9226;47.858;9.594;2023-03-04T03:47:14;95542.75;;;1.14;71.58
18201;BME280;9226;47.858;9.594;2023-03-04T03:49:39;95542.88;;;1.11;71.59
18201;BME280;9226;47.858;9.594;2023-03-04T03:52:05;95543.00;;;1.07;71.41
18201;BME280;9226;47.858;9.594;2023-03-04T03:54:32;95543.06;;;1.06;71.42
18201;BME280;9226;47.858;9.594;2023-03-04T03:56:58;95547.59;;;1.02;71.45
18201;BME280;9226;47.858;9.594;2023-03-04T03:59:23;95546.88;;;0.99;71.74
18201;BME280;9226;47.858;9.594;2023-03-04T04:01:48;95542.56;;;0.98;71.76
18201;BME280;9226;47.858;9.594;2023-03-04T04:04:14;95542.69;;;0.95;72.29
18201;BME280;9226;47.858;9.594;2023-03-04T04:06:39;95545.16;;;0.98;71.85
18201;BME280;9226;47.858;9.594;2023-03-04T04:09:04;95543.56;;;0.95;71.65
18201;BME280;9226;47.858;9.594;2023-03-04T04:11:30;95543.75;;;0.90;72.20
18201;BME280;9226;47.858;9.594;2023-03-04T04:13:55;95542.22;;;0.85;72.49
18201;BME280;9226;47.858;9.594;2023-03-04T04:16:20;95535.31;;;0.84;72.23
18201;BME280;9226;47.858;9.594;2023-03-04T04:18:46;95543.22;;;0.82;72.31
18201;BME280;9226;47.858;9.594;2023-03-04T04:21:11;95541.69;;;0.77;72.63
18201;BME280;9226;47.858;9.594;2023-03-04T04:23:37;95540.91;;;0.75;72.96
18201;BME280;9226;47.858;9.594;2023-03-04T04:26:03;95546.19;;;0.73;72.82
18201;BME280;9226;47.858;9.594;2023-03-04T04:28:28;95547.22;;;0.69;73.12
18201;BME280;9226;47.858;9.594;2023-03-04T04:30:54;95540.22;;;0.69;72.64
18201;BME280;9226;47.858;9.594;2023-03-04T04:33:19;95542.13;;;0.66;72.78
18201;BME280;9226;47.858;9.594;2023-03-04T04:35:44;95534.53;;;0.60;73.17
18201;BME280;9226;47.858;9.594;2023-03-04T04:38:10;95535.25;;;0.63;72.31
18201;BME280;9226;47.858;9.594;2023-03-04T04:40:35;95539.63;;;0.63;72.12
18201;BME280;9226;47.858;9.594;2023-03-04T04:43:01;95531.94;;;0.60;71.94
18201;BME280;9226;47.858;9.594;2023-03-04T04:45:27;95538.91;;;0.59;72.04
18201;BME280;9226;47.858;9.594;2023-03-04T04:47:53;95542.75;;;0.50;73.45
18201;BME280;9226;47.858;9.594;2023-03-04T04:50:19;95539.34;;;0.48;72.94
18201;BME280;9226;47.858;9.594;2023-03-04T04:52:45;95543.66;;;0.49;72.46
18201;BME280;9226;47.858;9.594;2023-03-04T04:55:10;95541.06;;;0.49;72.08
18201;BME280;9226;47.858;9.594;2023-03-04T04:57:36;95547.19;;;0.48;72.08
18201;BME280;9226;47.858;9.594;2023-03-04T05:00:04;95542.03;;;0.47;71.81
18201;BME280;9226;47.858;9.594;2023-03-04T05:02:29;95544.63;;;0.47;72.05
18201;BME280;9226;47.858;9.594;2023-03-04T05:04:55;95550.03;;;0.42;72.05
18201;BME280;9226;47.858;9.594;2023-03-04T05:07:20;95549.25;;;0.40;71.85
18201;BME280;9226;47.858;9.594;2023-03-04T05:09:46;95553.88;;;0.33;72.78
18201;BME280;9226;47.858;9.594;2023-03-04T05:12:11;95548.81;;;0.29;72.91
18201;BME280;9226;47.858;9.594;2023-03-04T05:14:36;95550.56;;;0.28;73.04
18201;BME280;9226;47.858;9.594;2023-03-04T05:17:02;95552.22;;;0.31;72.93
18201;BME280;9226;47.858;9.594;2023-03-04T05:19:27;95549.84;;;0.25;73.81
18201;BME280;9226;47.858;9.594;2023-03-04T05:21:53;95559.56;;;0.21;74.52
18201;BME280;9226;47.858;9.594;2023-03-04T05:24:18;95549.91;;;0.23;74.48
18201;BME280;9226;47.858;9.594;2023-03-04T05:26:44;95547.34;;;0.22;74.59
18201;BME280;9226;47.858;9.594;2023-03-04T05:29:09;95552.44;;;0.25;74.32
18201;BME280;9226;47.858;9.594;2023-03-04T05:31:34;95556.78;;;0.26;74.38
18201;BME280;9226;47.858;9.594;2023-03-04T05:34:00;95555.06;;;0.25;74.47
18201;BME280;9226;47.858;9.594;2023-03-04T05:36:25;95552.44;;;0.25;74.25
18201;BME280;9226;47.858;9.594;2023-03-04T05:38:50;95550.75;;;0.24;74.27
18201;BME280;9226;47.858;9.594;2023-03-04T05:41:16;95558.44;;;0.27;73.63
18201;BME280;9226;47.858;9.594;2023-03-04T05:43:44;95552.44;;;0.25;74.08
18201;BME280;9226;47.858;9.594;2023-03-04T05:46:14;95548.13;;;0.24;74.41
18201;BME280;9226;47.858;9.594;2023-03-04T05:48:39;95552.41;;;0.26;73.92
18201;BME280;9226;47.858;9.594;2023-03-04T05:51:05;95558.50;;;0.25;74.73
18201;BME280;9226;47.858;9.594;2023-03-04T05:53:30;95559.31;;;0.27;74.48
18201;BME280;9226;47.858;9.594;2023-03-04T05:55:56;95560.03;;;0.31;73.86
18201;BME280;9226;47.858;9.594;2023-03-04T05:58:23;95555.66;;;0.31;73.87
18201;BME280;9226;47.858;9.594;2023-03-04T06:00:48;95556.59;;;0.30;74.35
18201;BME280;9226;47.858;9.594;2023-03-04T06:03:17;95560.94;;;0.30;74.67
18201;BME280;9226;47.858;9.594;2023-03-04T06:05:43;95562.66;;;0.31;74.95
18201;BME280;9226;47.858;9.594;2023-03-04T06:08:09;95560.03;;;0.31;75.01
18201;BME280;9226;47.858;9.594;2023-03-04T06:10:34;95568.66;;;0.33;75.25
18201;BME280;9226;47.858;9.594;2023-03-04T06:13:00;95569.41;;;0.37;75.01
18201;BME280;9226;47.858;9.594;2023-03-04T06:15:25;95569.13;;;0.43;74.75
18201;BME280;9226;47.858;9.594;2023-03-04T06:17:51;95578.63;;;0.45;74.82
18201;BME280;9226;47.858;9.594;2023-03-04T06:20:16;95580.34;;;0.46;75.44
18201;BME280;9226;47.858;9.594;2023-03-04T06:22:41;95583.53;;;0.53;75.29
18201;BME280;9226;47.858;9.594;2023-03-04T06:25:07;95589.59;;;0.53;75.81
18201;BME280;9226;47.858;9.594;2023-03-04T06:27:33;95578.09;;;0.59;76.09
18201;BME280;9226;47.858;9.594;2023-03-04T06:29:58;95586.16;;;0.75;75.44
18201;BME280;9226;47.858;9.594;2023-03-04T06:32:24;95589.25;;;0.85;75.83
18201;BME280;9226;47.858;9.594;2023-03-04T06:34:49;95587.72;;;1.01;75.58
18201;BME280;9226;47.858;9.594;2023-03-04T06:37:14;95585.19;;;1.20;75.58
18201;BME280;9226;47.858;9.594;2023-03-04T06:39:40;95588.44;;;1.46;75.43
18201;BME280;9226;47.858;9.594;2023-03-04T06:42:05;95596.00;;;1.73;75.08
18201;BME280;9226;47.858;9.594;2023-03-04T06:44:30;95597.44;;;1.99;74.58
18201;BME280;9226;47.858;9.594;2023-03-04T06:46:56;95601.50;;;2.25;73.94
18201;BME280;9226;47.858;9.594;2023-03-04T06:49:21;95600.31;;;2.51;73.62
18201;BME280;9226;47.858;9.594;2023-03-04T06:51:47;95600.84;;;2.77;73.40
18201;BME280;9226;47.858;9.594;2023-03-04T06:54:12;95594.97;;;3.08;71.96
18201;BME280;9226;47.858;9.594;2023-03-04T06:56:38;95602.75;;;3.45;70.92
18201;BME280;9226;47.858;9.594;2023-03-04T06:59:03;95592.34;;;4.28;70.24
18201;BME280;9226;47.858;9.594;2023-03-04T07:01:29;95595.75;;;4.62;68.17
18201;BME280;9226;47.858;9.594;2023-03-04T07:03:55;95594.09;;;5.07;66.72
18201;BME280;9226;47.858;9.594;2023-03-04T07:06:23;95587.41;;;5.62;66.27
18201;BME280;9226;47.858;9.594;2023-03-04T07:08:50;95596.63;;;6.14;64.83
18201;BME280;9226;47.858;9.594;2023-03-04T07:11:15;95604.34;;;6.17;62.94
18201;BME280;9226;47.858;9.594;2023-03-04T07:13:41;95594.69;;;6.74;61.13
18201;BME280;9226;47.858;9.594;2023-03-04T07:16:09;95596.41;;;6.60;60.33
18201;BME280;9226;47.858;9.594;2023-03-04T07:18:35;95592.84;;;7.16;60.54
18201;BME280;9226;47.858;9.594;2023-03-04T07:21:01;95605.41;;;7.52;58.39
18201;BME280;9226;47.858;9.594;2023-03-04T07:23:26;95606.75;;;8.24;58.44
18201;BME280;9226;47.858;9.594;2023-03-04T07:25:52;95608.09;;;8.81;57.09
18201;BME280;9226;47.858;9.594;2023-03-04T07:28:18;95606.19;;;9.55;56.61
18201;BME280;9226;47.858;9.594;2023-03-04T07:30:43;95604.19;;;10.06;55.10
18201;BME280;9226;47.858;9.594;2023-03-04T07:33:09;95604.50;;;10.71;54.48
18201;BME280;9226;47.858;9.594;2023-03-04T07:35:35;95609.66;;;11.38;53.63
18201;BME280;9226;47.858;9.594;2023-03-04T07:38:00;95608.09;;;11.68;51.67
18201;BME280;9226;47.858;9.594;2023-03-04T07:40:26;95608.03;;;11.80;49.46
18201;BME280;9226;47.858;9.594;2023-03-04T07:42:53;95598.69;;;12.39;49.39
18201;BME280;9226;47.858;9.594;2023-03-04T07:45:20;95603.72;;;13.03;49.00
18201;BME280;9226;47.858;9.594;2023-03-04T07:47:45;95600.66;;;13.28;47.50
18201;BME280;9226;47.858;9.594;2023-03-04T07:50:11;95600.75;;;13.67;46.57
18201;BME280;9226;47.858;9.594;2023-03-04T07:52:41;95601.03;;;14.03;44.22
18201;BME280;9226;47.858;9.594;2023-03-04T07:55:08;95598.25;;;14.61;44.38
18201;BME280;9226;47.858;9.594;2023-03-04T07:57:34;95605.31;;;14.90;43.07
18201;BME280;9226;47.858;9.594;2023-03-04T08:00:00;95603.72;;;15.25;42.27
18201;BME280;9226;47.858;9.594;2023-03-04T08:02:25;95615.81;;;15.29;42.52
18201;BME280;9226;47.858;9.594;2023-03-04T08:04:50;95601.09;;;15.15;39.63
18201;BME280;9226;47.858;9.594;2023-03-04T08:07:16;95609.94;;;15.16;39.07
18201;BME280;9226;47.858;9.594;2023-03-04T08:09:42;95607.09;;;15.91;37.51
18201;BME280;9226;47.858;9.594;2023-03-04T08:12:07;95607.28;;;15.62;37.95
18201;BME280;9226;47.858;9.594;2023-03-04T08:14:33;95601.78;;;15.63;37.47
18201;BME280;9226;47.858;9.594;2023-03-04T08:16:58;95603.34;;;15.84;37.74
18201;BME280;9226;47.858;9.594;2023-03-04T08:19:24;95598.81;;;15.84;37.39
18201;BME280;9226;47.858;9.594;2023-03-04T08:21:50;95603.56;;;16.53;38.62
18201;BME280;9226;47.858;9.594;2023-03-04T08:24:15;95596.84;;;16.83;37.09
18201;BME280;9226;47.858;9.594;2023-03-04T08:26:44;95599.78;;;18.00;37.01
18201;BME280;9226;47.858;9.594;2023-03-04T08:29:19;95593.78;;;18.78;35.44
18201;BME280;9226;47.858;9.594;2023-03-04T08:31:45;95601.28;;;19.16;34.45
18201;BME280;9226;47.858;9.594;2023-03-04T08:34:12;95598.66;;;18.83;33.63
18201;BME280;9226;47.858;9.594;2023-03-04T08:36:39;95595.22;;;19.14;33.28
18201;BME280;9226;47.858;9.594;2023-03-04T08:39:05;95601.03;;;19.65;34.11
18201;BME280;9226;47.858;9.594;2023-03-04T08:41:31;95607.22;;;19.43;33.73
18201;BME280;9226;47.858;9.594;2023-03-04T08:43:56;95609.63;;;19.29;33.46
18201;BME280;9226;47.858;9.594;2023-03-04T08:46:21;95606.41;;;18.94;33.18
18201;BME280;9226;47.858;9.594;2023-03-04T08:48:47;95603.47;;;18.32;32.88
18201;BME280;9226;47.858;9.594;2023-03-04T08:51:13;95598.63;;;17.43;33.58
18201;BME280;9226;47.858;9.594;2023-03-04T08:53:39;95596.06;;;17.93;33.75
18201;BME280;9226;47.858;9.594;2023-03-04T08:56:06;95589.19;;;18.31;33.13
18201;BME280;9226;47.858;9.594;2023-03-04T08:58:32;95597.44;;;16.95;33.70
18201;BME280;9226;47.858;9.594;2023-03-04T09:00:58;95595.16;;;17.08;34.34
18201;BME280;9226;47.858;9.594;2023-03-04T09:03:24;95598.63;;;17.00;34.03
18201;BME280;9226;47.858;9.594;2023-03-04T09:05:50;95599.50;;;16.49;34.70
18201;BME280;9226;47.858;9.594;2023-03-04T09:08:16;95598.66;;;16.04;34.50
18201;BME280;9226;47.858;9.594;2023-03-04T09:10:42;95599.13;;;17.39;34.46
18201;BME280;9226;47.858;9.594;2023-03-04T09:13:08;95603.41;;;17.23;34.03
18201;BME280;9226;47.858;9.594;2023-03-04T09:15:36;95596.53;;;17.80;34.44
18201;BME280;9226;47.858;9.594;2023-03-04T09:18:03;95590.03;;;17.99;33.40
18201;BME280;9226;47.858;9.594;2023-03-04T09:20:30;95589.84;;;18.08;33.43
18201;BME280;9226;47.858;9.594;2023-03-04T09:22:55;95583.16;;;17.29;34.88
18201;BME280;9226;47.858;9.594;2023-03-04T09:25:21;95587.16;;;18.17;34.12
18201;BME280;9226;47.858;9.594;2023-03-04T09:27:46;95587.75;;;17.61;34.50
18201;BME280;9226;47.858;9.594;2023-03-04T09:30:12;95588.00;;;18.34;33.59
18201;BME280;9226;47.858;9.594;2023-03-04T09:32:38;95574.84;;;18.72;33.42
18201;BME280;9226;47.858;9.594;2023-03-04T09:35:04;95590.81;;;19.21;32.44
18201;BME280;9226;47.858;9.594;2023-03-04T09:37:30;95580.81;;;19.38;32.78
18201;BME280;9226;47.858;9.594;2023-03-04T09:39:55;95582.16;;;19.03;32.88
18201;BME280;9226;47.858;9.594;2023-03-04T09:42:26;95581.22;;;18.62;32.50
18201;BME280;9226;47.858;9.594;2023-03-04T09:44:53;95584.66;;;18.07;32.46
18201;BME280;9226;47.858;9.594;2023-03-04T09:47:20;95583.78;;;18.56;32.37
18201;BME280;9226;47.858;9.594;2023-03-04T09:50:02;95585.44;;;18.65;32.17
18201;BME280;9226;47.858;9.594;2023-03-04T09:55:39;95587.13;;;19.22;31.93
18201;BME280;9226;47.858;9.594;2023-03-04T10:01:19;95584.25;;;18.68;32.73
18201;BME280;9226;47.858;9.594;2023-03-04T10:06:20;95577.06;;;18.60;33.22
18201;BME280;9226;47.858;9.594;2023-03-04T10:11:27;95572.56;;;18.27;33.81
18201;BME280;9226;47.858;9.594;2023-03-04T10:16:26;95570.34;;;17.73;34.78
18201;BME280;9226;47.858;9.594;2023-03-04T10:21:56;95571.97;;;18.73;34.46
18201;BME280;9226;47.858;9.594;2023-03-04T10:24:26;95575.22;;;18.52;33.84
18201;BME280;9226;47.858;9.594;2023-03-04T10:26:57;95564.44;;;17.53;35.15
18201;BME280;9226;47.858;9.594;2023-03-04T10:29:26;95566.44;;;17.51;36.13
18201;BME280;9226;47.858;9.594;2023-03-04T10:31:54;95559.13;;;17.70;36.11
18201;BME280;9226;47.858;9.594;2023-03-04T10:34:20;95560.50;;;17.90;36.04
18201;BME280;9226;47.858;9.594;2023-03-04T10:36:52;95560.47;;;17.82;35.88
18201;BME280;9226;47.858;9.594;2023-03-04T10:39:30;95557.56;;;17.43;36.15
18201;BME280;9226;47.858;9.594;2023-03-04T10:44:57;95558.88;;;17.30;36.88
18201;BME280;9226;47.858;9.594;2023-03-04T10:47:26;95554.59;;;18.36;35.29
18201;BME280;9226;47.858;9.594;2023-03-04T10:49:56;95554.03;;;18.74;35.60
18201;BME280;9226;47.858;9.594;2023-03-04T10:52:45;95560.41;;;18.65;35.46
18201;BME280;9226;47.858;9.594;2023-03-04T10:55:16;95548.53;;;18.51;35.42
18201;BME280;9226;47.858;9.594;2023-03-04T10:57:43;95543.34;;;18.41;35.53
18201;BME280;9226;47.858;9.594;2023-03-04T11:02:47;95552.22;;;17.59;36.14
18201;BME280;9226;47.858;9.594;2023-03-04T11:05:21;95543.09;;;16.85;37.87
18201;BME280;9226;47.858;9.594;2023-03-04T11:07:52;95541.56;;;17.16;37.47
18201;BME280;9226;47.858;9.594;2023-03-04T11:12:54;95538.38;;;16.78;38.15
18201;BME280;9226;47.858;9.594;2023-03-04T11:15:22;95539.94;;;16.28;38.58
18201;BME280;9226;47.858;9.594;2023-03-04T11:17:55;95533.84;;;16.44;39.45
18201;BME280;9226;47.858;9.594;2023-03-04T11:20:25;95543.25;;;16.22;39.68
18201;BME280;9226;47.858;9.594;2023-03-04T11:22:53;95538.41;;;16.00;39.19
18201;BME280;9226;47.858;9.594;2023-03-04T11:26:15;95532.50;;;15.88;40.33
18201;BME280;9226;47.858;9.594;2023-03-04T11:28:17;95531.25;;;15.64;40.75
18201;BME280;9226;47.858;9.594;2023-03-04T11:31:00;95532.78;;;15.31;41.39
18201;BME280;9226;47.858;9.594;2023-03-04T11:33:35;95525.75;;;15.84;41.37
18201;BME280;9226;47.858;9.594;2023-03-04T11:38:57;95517.16;;;15.08;42.10
18201;BME280;9226;47.858;9.594;2023-03-04T11:41:35;95518.13;;;14.89;42.17
18201;BME280;9226;47.858;9.594;2023-03-04T11:44:07;95518.72;;;15.65;41.33
18201;BME280;9226;47.858;9.594;2023-03-04T11:52:30;95515.69;;;14.96;41.88
18201;BME280;9226;47.858;9.594;2023-03-04T12:05:41;95502.53;;;13.33;45.82
18201;BME280;9226;47.858;9.594;2023-03-04T12:08:30;95490.69;;;12.87;46.99
18201;BME280;9226;47.858;9.594;2023-03-04T12:11:04;95489.00;;;12.85;46.43
18201;BME280;9226;47.858;9.594;2023-03-04T12:30:55;95473.22;;;11.39;51.89
18201;BME280;9226;47.858;9.594;2023-03-04T12:46:41;95455.84;;;11.56;50.54
18201;BME280;9226;47.858;9.594;2023-03-04T12:49:42;95443.13;;;11.18;52.21
18201;BME280;9226;47.858;9.594;2023-03-04T12:52:28;95438.13;;;11.03;52.09
18201;BME280;9226;47.858;9.594;2023-03-04T12:55:01;95433.22;;;10.99;51.77
18201;BME280;9226;47.858;9.594;2023-03-04T12:57:28;95431.97;;;10.82;51.84
18201;BME280;9226;47.858;9.594;2023-03-04T13:02:46;95423.53;;;10.77;52.38
18201;BME280;9226;47.858;9.594;2023-03-04T13:08:03;95419.81;;;11.00;52.67
18201;BME280;9226;47.858;9.594;2023-03-04T13:10:33;95419.84;;;10.68;53.86
18201;BME280;9226;47.858;9.594;2023-03-04T13:12:59;95421.38;;;11.03;52.35
18201;BME280;9226;47.858;9.594;2023-03-04T13:15:27;95428.84;;;11.09;51.80
18201;BME280;9226;47.858;9.594;2023-03-04T13:18:42;95420.94;;;11.19;51.26
18201;BME280;9226;47.858;9.594;2023-03-04T13:20:43;95414.69;;;11.51;50.32
18201;BME280;9226;47.858;9.594;2023-03-04T13:28:17;95406.91;;;11.59;51.18
18201;BME280;9226;47.858;9.594;2023-03-04T13:43:39;95406.59;;;11.73;50.16
18201;BME280;9226;47.858;9.594;2023-03-04T13:51:28;95396.78;;;11.22;49.76
18201;BME280;9226;47.858;9.594;2023-03-04T13:54:06;95394.75;;;11.56;49.27
18201;BME280;9226;47.858;9.594;2023-03-04T13:56:36;95388.69;;;11.75;48.77
18201;BME280;9226;47.858;9.594;2023-03-04T14:01:49;95388.16;;;11.82;48.42
18201;BME280;9226;47.858;9.594;2023-03-04T14:06:43;95380.84;;;11.22;49.68
18201;BME280;9226;47.858;9.594;2023-03-04T14:11:46;95376.28;;;11.55;49.17
18201;BME280;9226;47.858;9.594;2023-03-04T14:14:20;95372.34;;;11.28;50.09
18201;BME280;9226;47.858;9.594;2023-03-04T14:16:48;95366.44;;;11.46;49.50
18201;BME280;9226;47.858;9.594;2023-03-04T14:21:46;95362.31;;;11.63;48.53
18201;BME280;9226;47.858;9.594;2023-03-04T14:24:16;95360.84;;;11.49;48.49
18201;BME280;9226;47.858;9.594;2023-03-04T14:26:43;95360.94;;;11.68;48.87
18201;BME280;9226;47.858;9.594;2023-03-04T14:29:26;95352.03;;;11.79;48.28
18201;BME280;9226;47.858;9.594;2023-03-04T14:31:54;95355.47;;;11.60;48.20
18201;BME280;9226;47.858;9.594;2023-03-04T14:34:29;95354.94;;;11.35;48.07
18201;BME280;9226;47.858;9.594;2023-03-04T14:36:57;95348.00;;;11.54;48.64
18201;BME280;9226;47.858;9.594;2023-03-04T14:39:25;95349.97;;;11.52;48.29
18201;BME280;9226;47.858;9.594;2023-03-04T14:41:55;95350.00;;;11.62;48.27
18201;BME280;9226;47.858;9.594;2023-03-04T14:44:29;95340.63;;;11.57;48.33
18201;BME280;9226;47.858;9.594;2023-03-04T14:49:43;95334.44;;;11.47;48.37
18201;BME280;9226;47.858;9.594;2023-03-04T14:52:45;95334.81;;;11.43;48.32
18201;BME280;9226;47.858;9.594;2023-03-04T14:57:41;95324.84;;;11.66;47.78
18201;BME280;9226;47.858;9.594;2023-03-04T15:00:24;95324.38;;;11.51;47.31
18201;BME280;9226;47.858;9.594;2023-03-04T15:02:59;95323.31;;;11.32;47.49
18201;BME280;9226;47.858;9.594;2023-03-04T15:05:33;95324.38;;;11.20;48.04
18201;BME280;9226;47.858;9.594;2023-03-04T15:08:02;95325.66;;;11.04;48.44
18201;BME280;9226;47.858;9.594;2023-03-04T15:10:37;95317.97;;;11.01;48.20
18201;BME280;9226;47.858;9.594;2023-03-04T15:13:07;95320.88;;;10.98;48.74
18201;BME280;9226;47.858;9.594;2023-03-04T15:15:42;95319.66;;;10.81;49.18
18201;BME280;9226;47.858;9.594;2023-03-04T15:18:23;95320.63;;;11.01;49.27
18201;BME280;9226;47.858;9.594;2023-03-04T15:20:56;95315.22;;;11.13;49.27